Time;durP1;ratioP1;P1;durP2;ratioP2;P2;SDS_P1;SDS_P2;PMS_P1;PMS_P2;Temp;Humidity;BMP_temperature;BMP_pressure;BME280_temperature;BME280_humidity;BME280_pressure;Samples;Min_cycle;Max_cycle;Signal;HPM_P1;HPM_P2
2022/05/02 00:02:12;;;;;;;9.65;4.65;;;8.10;99.90;;;;;;4990968;28;20034;-89
2022/05/02 00:04:38;;;;;;;10.88;5.43;;;8.10;99.90;;;;;;4975376;28;20513;-89
2022/05/02 00:07:04;;;;;;;10.48;5.32;;;8.00;99.90;;;;;;4975135;28;20038;-89
2022/05/02 00:09:29;;;;;;;12.10;5.47;;;8.00;99.90;;;;;;4991328;28;20046;-88
2022/05/02 00:11:55;;;;;;;9.68;4.82;;;8.00;99.90;;;;;;4974961;28;20077;-89
2022/05/02 00:14:20;;;;;;;9.73;5.00;;;7.90;99.90;;;;;;4991264;28;20042;-88
2022/05/02 00:16:46;;;;;;;9.63;5.05;;;7.90;99.90;;;;;;4991176;28;20089;-89
2022/05/02 00:19:12;;;;;;;9.00;4.80;;;7.80;99.90;;;;;;4990951;28;20084;-89
2022/05/02 00:21:37;;;;;;;9.98;4.68;;;7.80;99.90;;;;;;4974789;28;20182;-88
2022/05/02 00:24:03;;;;;;;13.38;5.45;;;7.80;99.90;;;;;;4991292;28;20042;-88
2022/05/02 00:26:29;;;;;;;10.48;5.15;;;7.80;99.90;;;;;;4975318;28;20046;-88
2022/05/02 00:28:55;;;;;;;10.93;5.60;;;7.80;99.90;;;;;;4991276;28;20034;-89
2022/05/02 00:31:20;;;;;;;8.68;4.60;;;7.70;99.90;;;;;;4990621;28;20504;-89
2022/05/02 00:33:46;;;;;;;10.43;5.70;;;7.60;99.90;;;;;;4991012;28;20042;-88
2022/05/02 00:36:11;;;;;;;12.27;5.32;;;7.50;99.90;;;;;;4990975;28;20046;-88
2022/05/02 00:38:37;;;;;;;11.98;4.68;;;7.50;99.90;;;;;;4974841;28;20097;-89
2022/05/02 00:41:03;;;;;;;9.85;4.63;;;7.40;99.90;;;;;;4974443;28;20042;-88
2022/05/02 00:43:29;;;;;;;9.82;5.20;;;7.40;99.90;;;;;;4974654;28;20049;-88
2022/05/02 00:45:56;;;;;;;9.63;4.72;;;7.40;99.90;;;;;;4974665;28;20046;-89
2022/05/02 00:48:21;;;;;;;11.35;5.63;;;7.30;99.90;;;;;;4975140;28;20049;-88
2022/05/02 00:50:47;;;;;;;12.00;5.25;;;7.30;99.90;;;;;;4990640;28;20038;-89
2022/05/02 00:53:14;;;;;;;10.68;4.63;;;7.30;99.90;;;;;;4992063;28;20088;-89
2022/05/02 00:55:41;;;;;;;9.70;5.07;;;7.20;99.90;;;;;;4977349;28;20097;-88
2022/05/02 00:58:07;;;;;;;10.55;5.15;;;7.20;99.90;;;;;;4994810;28;20104;-89
2022/05/02 01:00:38;;;;;;;11.02;5.22;;;7.10;99.90;;;;;;4994486;28;20038;-88
2022/05/02 01:03:05;;;;;;;10.38;4.82;;;7.00;99.90;;;;;;4994572;28;20039;-88
2022/05/02 01:05:31;;;;;;;10.77;5.05;;;7.00;99.90;;;;;;4978336;28;20176;-88
2022/05/02 01:07:56;;;;;;;12.13;5.93;;;7.00;99.90;;;;;;4994614;28;20085;-89
2022/05/02 01:10:23;;;;;;;10.48;5.78;;;7.00;99.90;;;;;;4994050;28;20102;-89
2022/05/02 01:12:49;;;;;;;9.40;5.15;;;7.00;99.90;;;;;;4994518;28;20135;-88
2022/05/02 01:15:16;;;;;;;12.02;5.45;;;7.00;99.90;;;;;;4994337;28;20488;-88
2022/05/02 01:17:43;;;;;;;10.73;5.20;;;7.00;99.90;;;;;;4994696;28;20062;-88
2022/05/02 01:20:13;;;;;;;11.23;5.45;;;6.90;99.90;;;;;;4994083;28;20041;-88
2022/05/02 01:22:38;;;;;;;10.35;5.38;;;6.80;99.90;;;;;;4994487;28;20047;-89
2022/05/02 01:25:05;;;;;;;12.13;5.68;;;6.80;99.90;;;;;;4994275;28;20049;-88
2022/05/02 01:27:30;;;;;;;11.25;6.00;;;6.70;99.90;;;;;;4978136;28;20404;-88
2022/05/02 01:29:56;;;;;;;12.18;5.30;;;6.60;99.90;;;;;;4993958;28;20057;-88
2022/05/02 01:32:21;;;;;;;11.15;5.22;;;6.60;99.90;;;;;;4977741;28;20050;-89
2022/05/02 01:34:47;;;;;;;9.40;5.47;;;6.60;99.90;;;;;;4993994;28;20129;-88
2022/05/02 01:37:14;;;;;;;10.73;5.68;;;6.50;99.90;;;;;;4994227;28;20038;-88
2022/05/02 01:39:41;;;;;;;10.93;5.53;;;6.50;99.90;;;;;;4994081;28;20092;-88
2022/05/02 01:42:09;;;;;;;10.20;5.22;;;6.40;99.90;;;;;;4993612;28;20073;-88
2022/05/02 01:44:36;;;;;;;10.27;5.38;;;6.40;99.90;;;;;;4977802;28;20492;-88
2022/05/02 01:47:02;;;;;;;10.73;5.25;;;6.40;99.90;;;;;;4977806;28;20042;-88
2022/05/02 01:49:28;;;;;;;11.75;5.90;;;6.30;99.90;;;;;;4993776;28;20516;-88
2022/05/02 01:51:57;;;;;;;10.68;6.03;;;6.30;99.90;;;;;;4993798;28;20042;-88
2022/05/02 01:54:23;;;;;;;10.25;5.68;;;6.30;99.90;;;;;;4993682;28;20614;-88
2022/05/02 01:56:49;;;;;;;11.55;5.57;;;6.30;99.90;;;;;;4993549;28;20129;-88
2022/05/02 01:59:14;;;;;;;12.45;6.55;;;6.20;99.90;;;;;;4977553;28;20416;-88
2022/05/02 02:01:40;;;;;;;10.93;5.35;;;6.20;99.90;;;;;;4993477;28;20385;-88
2022/05/02 02:06:50;;;;;;;12.10;6.18;;;6.20;99.90;;;;;;4992311;28;20050;-88
2022/05/02 02:09:16;;;;;;;12.23;6.20;;;6.10;99.90;;;;;;4993370;28;20077;-88
2022/05/02 02:11:43;;;;;;;10.88;6.20;;;6.10;99.90;;;;;;4993163;28;20120;-88
2022/05/02 02:14:08;;;;;;;12.02;6.72;;;6.10;99.90;;;;;;4977411;28;20038;-88
2022/05/02 02:16:34;;;;;;;11.88;7.15;;;6.10;99.90;;;;;;4993223;28;20039;-88
2022/05/02 02:19:00;;;;;;;11.63;6.72;;;6.10;99.90;;;;;;4977147;28;20046;-89
2022/05/02 02:21:26;;;;;;;13.77;7.35;;;6.10;99.90;;;;;;4976621;28;20038;-88
2022/05/02 02:23:51;;;;;;;11.02;6.65;;;6.10;99.90;;;;;;4977107;28;20070;-88
2022/05/02 02:26:17;;;;;;;13.50;6.90;;;6.10;99.90;;;;;;4993460;28;20503;-88
2022/05/02 02:28:43;;;;;;;13.00;7.05;;;6.10;99.90;;;;;;4976786;28;20105;-87
2022/05/02 02:31:08;;;;;;;11.90;7.15;;;6.10;99.90;;;;;;4976535;28;20042;-88
2022/05/02 02:33:34;;;;;;;13.13;6.47;;;6.00;99.90;;;;;;4976752;28;20045;-88
2022/05/02 02:36:00;;;;;;;11.50;6.47;;;6.00;99.90;;;;;;5012020;28;20058;-88
2022/05/02 02:38:26;;;;;;;11.02;5.82;;;5.90;99.90;;;;;;5018925;28;20038;-88
2022/05/02 02:40:52;;;;;;;10.88;5.15;;;5.80;99.90;;;;;;5013608;28;20046;-88
2022/05/02 02:43:17;;;;;;;8.90;5.07;;;5.80;99.90;;;;;;5013063;28;20030;-88
2022/05/02 02:45:43;;;;;;;9.73;5.03;;;5.80;99.90;;;;;;5012119;28;20125;-88
2022/05/02 02:48:09;;;;;;;10.05;5.47;;;5.70;99.90;;;;;;5016125;28;20122;-88
2022/05/02 02:50:35;;;;;;;9.30;5.47;;;5.70;99.90;;;;;;4990667;28;20042;-88
2022/05/02 02:53:01;;;;;;;10.85;5.72;;;5.70;99.90;;;;;;4999192;28;20397;-88
2022/05/02 02:55:26;;;;;;;8.88;4.32;;;5.60;99.90;;;;;;4993483;28;20056;-87
2022/05/02 02:57:52;;;;;;;9.00;4.18;;;5.60;99.90;;;;;;4977470;28;20046;-88
2022/05/02 03:00:18;;;;;;;7.85;4.13;;;5.50;99.90;;;;;;4992917;28;20038;-88
2022/05/02 03:02:44;;;;;;;7.88;4.20;;;5.40;99.90;;;;;;4992878;28;20040;-88
2022/05/02 03:07:56;;;;;;;10.60;5.22;;;5.40;99.90;;;;;;4992466;28;20058;-88
2022/05/02 03:10:22;;;;;;;9.50;5.82;;;5.40;99.90;;;;;;4992170;28;20053;-88
2022/05/02 03:12:48;;;;;;;12.52;5.78;;;5.30;99.90;;;;;;4976582;28;20038;-88
2022/05/02 03:15:13;;;;;;;10.88;5.68;;;5.30;99.90;;;;;;4992344;28;20504;-88
2022/05/02 03:17:39;;;;;;;11.88;5.80;;;5.30;99.90;;;;;;4991922;28;20042;-88
2022/05/02 03:20:05;;;;;;;12.73;6.47;;;5.30;99.90;;;;;;4975956;28;20129;-88
2022/05/02 03:22:31;;;;;;;11.20;6.72;;;5.30;99.90;;;;;;4992534;28;20034;-89
2022/05/02 03:24:56;;;;;;;10.95;6.30;;;5.30;99.90;;;;;;4992187;28;20045;-89
2022/05/02 03:27:22;;;;;;;9.75;5.43;;;5.20;99.90;;;;;;4975966;28;20492;-88
2022/05/02 03:29:47;;;;;;;11.15;5.68;;;5.20;99.90;;;;;;4992231;28;20038;-88
2022/05/02 03:32:13;;;;;;;8.55;3.88;;;5.10;99.90;;;;;;4976152;28;20177;-89
2022/05/02 03:34:39;;;;;;;7.53;3.83;;;5.00;99.90;;;;;;4992101;28;20176;-88
2022/05/02 03:37:05;;;;;;;8.30;4.15;;;5.00;99.90;;;;;;4991961;28;20038;-88
2022/05/02 03:39:30;;;;;;;8.93;4.50;;;5.00;99.90;;;;;;4975988;28;20121;-89
2022/05/02 03:41:56;;;;;;;8.13;4.20;;;4.90;99.90;;;;;;4991634;28;20191;-88
2022/05/02 03:44:21;;;;;;;9.57;5.07;;;4.90;99.90;;;;;;4992076;28;20038;-88
2022/05/02 03:46:47;;;;;;;10.68;5.53;;;4.90;99.90;;;;;;4991945;28;20049;-88
2022/05/02 03:49:13;;;;;;;9.90;5.15;;;4.90;99.90;;;;;;4975546;28;20049;-88
2022/05/02 03:51:38;;;;;;;9.65;5.20;;;4.80;99.90;;;;;;4990413;28;20073;-88
2022/05/02 03:54:04;;;;;;;10.65;5.57;;;4.80;99.90;;;;;;4991263;28;21920;-88
2022/05/02 03:56:30;;;;;;;12.00;6.05;;;4.80;99.90;;;;;;4991704;28;20044;-88
2022/05/02 03:58:55;;;;;;;11.80;5.88;;;4.80;99.90;;;;;;4991694;28;20038;-88
2022/05/02 04:01:21;;;;;;;10.68;4.82;;;4.80;99.90;;;;;;4991509;28;20034;-88
2022/05/02 04:03:46;;;;;;;12.40;5.47;;;4.80;99.90;;;;;;4991136;28;20042;-88
2022/05/02 04:06:13;;;;;;;14.10;6.00;;;4.80;99.90;;;;;;4991809;28;20046;-88
2022/05/02 04:08:39;;;;;;;12.00;6.03;;;4.80;99.90;;;;;;4991748;28;20518;-88
2022/05/02 04:11:04;;;;;;;10.05;5.55;;;4.80;99.90;;;;;;4991341;28;20134;-88
2022/05/02 04:13:30;;;;;;;9.35;5.45;;;4.70;99.90;;;;;;4991477;28;20535;-88
2022/05/02 04:15:55;;;;;;;9.88;5.50;;;4.70;99.90;;;;;;4991337;28;20403;-88
2022/05/02 04:18:21;;;;;;;10.13;5.40;;;4.70;99.90;;;;;;4991283;28;20038;-88
2022/05/02 04:20:46;;;;;;;11.82;6.70;;;4.70;99.90;;;;;;4991063;28;20401;-88
2022/05/02 04:23:12;;;;;;;11.38;6.18;;;4.70;99.90;;;;;;4991576;28;20045;-88
2022/05/02 04:25:38;;;;;;;11.35;6.60;;;4.60;99.90;;;;;;4991889;28;20038;-88
2022/05/02 04:28:04;;;;;;;11.50;6.25;;;4.70;99.90;;;;;;4991278;28;20511;-88
2022/05/02 04:30:29;;;;;;;11.45;5.97;;;4.60;99.90;;;;;;4993836;28;20070;-88
2022/05/02 04:32:55;;;;;;;10.77;6.28;;;4.70;99.90;;;;;;4995399;28;20038;-88
2022/05/02 04:35:21;;;;;;;11.60;6.80;;;4.60;99.90;;;;;;4995424;28;20050;-88
2022/05/02 04:37:46;;;;;;;11.15;6.47;;;4.60;99.90;;;;;;4995146;28;20046;-88
2022/05/02 04:40:12;;;;;;;11.77;7.07;;;4.60;99.90;;;;;;4994940;28;20070;-88
2022/05/02 04:42:38;;;;;;;13.18;6.68;;;4.60;99.90;;;;;;4995076;28;20077;-88
2022/05/02 04:45:04;;;;;;;12.25;7.30;;;4.60;99.90;;;;;;4995297;28;20073;-88
2022/05/02 04:47:30;;;;;;;13.52;7.05;;;4.60;99.90;;;;;;4995227;28;20121;-89
2022/05/02 04:49:55;;;;;;;14.45;7.53;;;4.60;99.90;;;;;;4994827;28;20469;-88
2022/05/02 04:52:21;;;;;;;13.20;7.32;;;4.60;99.90;;;;;;4994993;28;20039;-88
2022/05/02 04:54:46;;;;;;;24.10;11.27;;;4.60;99.90;;;;;;4995091;28;20412;-88
2022/05/02 04:57:12;;;;;;;11.43;6.90;;;4.70;99.90;;;;;;4994971;28;20034;-87
2022/05/02 04:59:37;;;;;;;12.15;6.35;;;4.70;99.90;;;;;;4994840;28;20046;-88
2022/05/02 05:02:04;;;;;;;12.00;7.20;;;4.70;99.90;;;;;;4994410;28;20046;-88
2022/05/02 05:04:30;;;;;;;11.40;7.38;;;4.70;99.90;;;;;;4994772;28;20522;-88
2022/05/02 05:06:56;;;;;;;12.27;6.47;;;4.80;99.90;;;;;;4995022;28;20132;-88
2022/05/02 05:09:21;;;;;;;11.38;6.25;;;4.80;99.90;;;;;;4995003;28;20507;-88
2022/05/02 05:12:10;;;;;;;12.18;6.85;;;4.80;99.90;;;;;;4994063;28;20078;-89
2022/05/02 05:18:25;;;;;;;12.63;6.47;;;4.80;99.90;;;;;;4974627;28;20050;-87
2022/05/02 05:20:56;;;;;;;12.70;6.70;;;4.90;99.90;;;;;;4974635;28;20039;-88
2022/05/02 05:23:47;;;;;;;11.90;6.93;;;4.90;99.90;;;;;;4974819;28;20043;-88
2022/05/02 05:26:23;;;;;;;15.57;7.85;;;4.90;99.90;;;;;;4975145;28;20050;-88
2022/05/02 05:29:35;;;;;;;12.02;7.10;;;4.90;99.90;;;;;;4958790;28;20090;-88
2022/05/02 05:32:27;;;;;;;14.00;6.30;;;5.00;99.90;;;;;;4974903;28;20209;-88
2022/05/02 05:35:04;;;;;;;11.20;6.22;;;5.00;99.90;;;;;;4974582;28;20054;-88
2022/05/02 05:37:49;;;;;;;11.68;6.85;;;5.00;99.90;;;;;;4975040;28;20077;-88
2022/05/02 05:40:34;;;;;;;13.32;7.70;;;5.10;99.90;;;;;;4973992;28;20050;-88
2022/05/02 05:43:25;;;;;;;14.75;8.13;;;5.10;99.90;;;;;;4974501;28;20122;-89
2022/05/02 05:46:03;;;;;;;11.57;7.10;;;5.20;99.90;;;;;;4975598;28;20043;-89
2022/05/02 05:49:03;;;;;;;12.10;7.53;;;5.30;99.90;;;;;;4975024;28;20047;-88
2022/05/02 05:51:48;;;;;;;16.42;7.68;;;5.40;99.90;;;;;;4958077;28;20053;-88
2022/05/02 05:54:41;;;;;;;14.77;7.20;;;5.40;99.90;;;;;;4974530;28;20038;-88
2022/05/02 05:57:28;;;;;;;13.65;7.22;;;5.50;99.90;;;;;;4958295;28;20125;-88
2022/05/02 05:59:57;;;;;;;15.50;9.10;;;5.70;99.90;;;;;;4974262;28;20047;-89
2022/05/02 06:02:32;;;;;;;14.50;9.13;;;5.80;99.90;;;;;;4958011;28;20101;-88
2022/05/02 06:04:59;;;;;;;16.38;10.18;;;5.90;99.90;;;;;;4958635;28;20039;-88
2022/05/02 06:07:28;;;;;;;19.95;11.73;;;6.00;99.90;;;;;;4974298;28;20049;-88
2022/05/02 06:09:56;;;;;;;21.67;12.05;;;6.20;99.90;;;;;;4973906;28;20723;-88
2022/05/02 06:12:24;;;;;;;17.25;11.05;;;6.30;99.90;;;;;;4974148;28;20035;-88
2022/05/02 06:20:24;;;;;;;23.35;13.93;;;6.80;99.90;;;;;;4973934;28;20051;-88
2022/05/02 06:22:50;;;;;;;19.60;13.63;;;6.90;99.90;;;;;;4973939;28;20078;-88
2022/05/02 06:25:19;;;;;;;19.10;11.52;;;7.10;99.90;;;;;;4973683;28;20543;-88
2022/05/02 06:27:47;;;;;;;18.85;12.15;;;7.30;99.90;;;;;;4957822;28;20038;-88
2022/05/02 06:30:14;;;;;;;20.40;12.68;;;7.40;99.90;;;;;;4957607;28;20035;-88
2022/05/02 06:32:43;;;;;;;20.10;12.48;;;7.60;99.90;;;;;;4973828;28;20093;-89
2022/05/02 06:35:09;;;;;;;19.20;12.85;;;7.70;99.90;;;;;;4958034;28;20553;-90
2022/05/02 06:37:37;;;;;;;20.75;13.52;;;7.90;99.90;;;;;;4986317;28;20129;-89
2022/05/02 06:40:59;;;;;;;21.42;13.98;;;8.00;99.90;;;;;;4976546;28;20143;-89
2022/05/02 06:43:38;;;;;;;20.00;12.80;;;8.20;99.90;;;;;;4974846;28;20100;-88
2022/05/02 06:46:18;;;;;;;18.48;12.68;;;8.40;99.90;;;;;;4991114;28;20092;-88
2022/05/02 06:49:08;;;;;;;20.38;12.57;;;8.60;99.90;;;;;;4975559;28;20077;-88
2022/05/02 06:51:42;;;;;;;16.73;11.07;;;8.70;99.90;;;;;;4991565;28;20042;-88
2022/05/02 06:54:16;;;;;;;22.98;11.57;;;8.90;99.90;;;;;;4991115;28;20070;-88
2022/05/02 06:56:50;;;;;;;18.17;12.18;;;9.00;99.90;;;;;;4992013;28;20039;-89
2022/05/02 06:59:33;;;;;;;18.45;12.07;;;9.20;99.90;;;;;;4992946;28;20053;-89
2022/05/02 07:02:09;;;;;;;17.63;11.98;;;9.40;99.90;;;;;;4992509;28;20034;-89
2022/05/02 07:04:49;;;;;;;16.25;11.18;;;9.50;99.90;;;;;;4976895;28;20378;-89
2022/05/02 07:07:51;;;;;;;16.27;10.98;;;9.70;99.90;;;;;;4992635;28;20082;-89
2022/05/02 07:10:25;;;;;;;15.68;10.27;;;9.80;99.90;;;;;;4992343;28;20124;-89
2022/05/02 07:13:29;;;;;;;15.55;9.88;;;10.00;99.90;;;;;;4976395;28;20435;-89
2022/05/02 07:16:23;;;;;;;17.98;9.65;;;10.20;99.90;;;;;;4976006;28;20038;-89
2022/05/02 07:19:13;;;;;;;14.00;8.77;;;10.40;99.90;;;;;;5025201;28;20049;-89
2022/05/02 07:22:01;;;;;;;16.67;9.43;;;10.50;99.90;;;;;;4991944;28;20039;-89
2022/05/02 07:25:12;;;;;;;16.40;8.88;;;10.70;99.90;;;;;;4992494;28;20125;-89
2022/05/02 07:28:09;;;;;;;17.45;9.35;;;10.80;99.90;;;;;;4988854;28;20053;-89
2022/05/02 07:30:35;;;;;;;15.48;8.73;;;11.00;99.90;;;;;;5008380;28;20038;-89
2022/05/02 07:33:03;;;;;;;11.80;7.68;;;11.10;99.90;;;;;;5024649;28;20173;-89
2022/05/02 07:35:30;;;;;;;13.50;8.02;;;11.30;99.90;;;;;;4975707;28;20049;-89
2022/05/02 07:37:58;;;;;;;11.70;8.27;;;11.40;99.90;;;;;;4975637;28;20125;-89
2022/05/02 07:40:25;;;;;;;16.65;8.00;;;11.60;99.90;;;;;;4991394;28;20043;-90
2022/05/02 07:42:53;;;;;;;14.18;7.95;;;11.70;99.90;;;;;;5024950;28;20448;-89
2022/05/02 07:45:24;;;;;;;14.93;8.30;;;11.90;99.90;;;;;;5008408;28;20101;-90
2022/05/02 07:47:52;;;;;;;14.23;8.38;;;11.90;99.90;;;;;;4991769;28;20050;-89
2022/05/02 07:50:21;;;;;;;15.95;8.80;;;12.10;99.90;;;;;;5008036;28;20078;-90
2022/05/02 07:52:49;;;;;;;12.80;7.97;;;12.20;99.90;;;;;;4991707;28;20129;-90
2022/05/02 07:55:19;;;;;;;17.73;9.27;;;12.30;99.90;;;;;;4992340;28;20066;-90
2022/05/02 07:57:48;;;;;;;12.70;8.60;;;12.40;99.90;;;;;;4991531;28;20050;-90
2022/05/02 08:00:16;;;;;;;15.75;8.18;;;12.60;99.90;;;;;;5024495;28;20531;-90
2022/05/02 08:02:42;;;;;;;12.88;8.05;;;12.70;99.90;;;;;;5024322;28;20038;-90
2022/05/02 08:05:08;;;;;;;13.38;7.63;;;12.80;99.90;;;;;;4991747;28;20038;-90
2022/05/02 08:07:44;;;;;;;13.75;8.05;;;12.90;99.90;;;;;;4991435;28;20039;-90
2022/05/02 08:10:47;;;;;;;10.98;7.75;;;13.00;99.90;;;;;;4991332;28;20041;-90
2022/05/02 08:13:35;;;;;;;15.13;8.98;;;13.20;99.90;;;;;;4991830;28;20407;-90
2022/05/02 08:16:05;;;;;;;13.98;8.00;;;13.30;99.90;;;;;;4991763;28;20815;-90
2022/05/02 08:18:57;;;;;;;12.38;8.48;;;13.40;99.50;;;;;;5024435;28;20042;-91
2022/05/02 08:21:29;;;;;;;12.25;8.05;;;13.50;98.80;;;;;;4975033;28;20050;-90
2022/05/02 08:29:56;;;;;;;11.63;7.75;;;13.80;96.40;;;;;;4991220;28;20050;-90
2022/05/02 08:32:42;;;;;;;14.18;7.93;;;13.90;96.00;;;;;;4991390;28;20046;-90
2022/05/02 08:35:14;;;;;;;11.65;8.00;;;14.00;96.50;;;;;;5023987;28;20100;-90
2022/05/02 08:37:54;;;;;;;12.48;7.90;;;14.20;95.30;;;;;;4975303;28;20043;-90
2022/05/02 08:40:22;;;;;;;12.75;8.63;;;14.30;96.40;;;;;;4975004;28;20046;-90
2022/05/02 08:43:34;;;;;;;13.75;9.52;;;14.40;96.50;;;;;;5023922;28;20053;-91
2022/05/02 08:46:27;;;;;;;11.82;7.95;;;14.50;94.30;;;;;;4975028;28;20046;-90
2022/05/02 08:49:35;;;;;;;13.38;8.70;;;14.50;95.70;;;;;;4991299;28;20049;-90
2022/05/02 08:52:38;;;;;;;12.23;8.95;;;14.70;95.80;;;;;;4990809;28;20121;-90
2022/05/02 08:55:19;;;;;;;14.93;8.55;;;14.80;95.30;;;;;;4991038;28;20042;-91
2022/05/02 08:58:06;;;;;;;9.90;7.40;;;15.00;95.50;;;;;;4974904;28;20362;-90
2022/05/02 09:00:43;;;;;;;12.48;7.30;;;15.10;92.60;;;;;;4990829;28;20074;-90
2022/05/02 09:03:21;;;;;;;13.25;9.10;;;15.20;90.00;;;;;;5007520;28;20038;-90
2022/05/02 09:06:05;;;;;;;12.38;8.70;;;15.30;86.20;;;;;;4974536;28;20046;-90
2022/05/02 09:09:03;;;;;;;13.68;8.73;;;15.40;87.70;;;;;;5024111;28;20042;-91
2022/05/02 09:11:39;;;;;;;12.27;8.25;;;15.50;85.80;;;;;;4974815;28;20117;-90
2022/05/02 09:14:29;;;;;;;11.10;7.40;;;15.60;87.20;;;;;;4974580;28;20057;-90
2022/05/02 09:17:27;;;;;;;11.45;8.07;;;15.70;85.90;;;;;;4977505;28;20125;-91
2022/05/02 09:20:06;;;;;;;11.10;7.78;;;15.90;84.40;;;;;;5027405;28;20035;-90
2022/05/02 09:23:02;;;;;;;11.57;8.45;;;16.00;84.90;;;;;;4994637;28;20125;-91
2022/05/02 09:25:51;;;;;;;12.57;8.02;;;16.10;80.80;;;;;;4978609;28;20042;-91
2022/05/02 09:28:21;;;;;;;10.40;7.28;;;16.20;80.00;;;;;;4994500;28;20077;-90
2022/05/02 09:31:08;;;;;;;12.13;7.80;;;16.40;77.40;;;;;;5026133;28;20038;-91
2022/05/02 09:33:57;;;;;;;11.27;7.95;;;16.50;75.10;;;;;;4977463;28;20053;-90
2022/05/02 09:36:54;;;;;;;11.95;8.05;;;16.60;73.50;;;;;;4980100;28;20041;-91
2022/05/02 09:39:24;;;;;;;12.00;7.90;;;16.60;71.90;;;;;;5027101;28;20082;-91
2022/05/02 09:42:12;;;;;;;12.43;8.07;;;16.70;70.90;;;;;;4993776;28;20121;-91
2022/05/02 09:49:33;;;;;;;12.45;7.82;;;17.00;70.40;;;;;;4993720;28;20050;-90
2022/05/02 09:51:53;;;;;;;10.95;7.45;;;17.10;69.00;;;;;;4993776;28;20056;-90
2022/05/02 09:57:31;;;;;;;11.75;8.35;;;17.40;67.90;;;;;;5008595;28;20041;-91
2022/05/02 10:02:58;;;;;;;10.85;8.25;;;17.60;67.20;;;;;;5012894;28;20042;-91
2022/05/02 10:05:37;;;;;;;;;;;17.80;66.60;;;;;;5013445;28;20522;-91
2022/05/02 10:08:22;;;;;;;14.65;9.35;;;17.70;63.50;;;;;;5012582;28;20579;-91
2022/05/02 10:11:03;;;;;;;13.95;9.20;;;17.70;63.40;;;;;;5009482;28;20352;-91
2022/05/02 10:13:46;;;;;;;13.73;8.98;;;17.70;62.70;;;;;;4977402;28;20129;-91
2022/05/02 10:16:43;;;;;;;26.90;9.52;;;17.70;60.60;;;;;;4977024;28;20117;-91
2022/05/02 10:19:23;;;;;;;11.80;8.30;;;17.60;62.20;;;;;;4995681;28;20349;-90
2022/05/02 10:22:09;;;;;;;12.23;9.40;;;17.60;61.60;;;;;;4997886;28;20038;-90
2022/05/02 10:24:56;;;;;;;12.75;8.68;;;17.80;61.60;;;;;;4993645;28;20100;-90
2022/05/02 10:27:45;;;;;;;13.02;9.63;;;18.00;60.70;;;;;;4975703;28;20047;-90
2022/05/02 10:30:12;;;;;;;13.07;9.98;;;18.10;57.40;;;;;;4992719;28;20046;-90
2022/05/02 10:32:56;;;;;;;12.95;8.80;;;18.10;56.80;;;;;;5009156;28;20049;-91
2022/05/02 10:35:25;;;;;;;13.82;9.10;;;18.10;59.00;;;;;;4993078;28;20047;-91
2022/05/02 10:37:59;;;;;;;13.70;9.60;;;18.20;58.30;;;;;;5025711;28;20053;-91
2022/05/02 10:40:40;;;;;;;11.70;8.98;;;18.40;56.40;;;;;;4992297;28;20130;-91
2022/05/02 10:43:09;;;;;;;11.35;8.57;;;18.50;56.50;;;;;;5008760;28;20042;-91
2022/05/02 10:45:38;;;;;;;12.43;9.65;;;18.60;57.70;;;;;;4995239;28;20042;-91
2022/05/02 10:48:15;;;;;;;11.73;8.65;;;18.70;55.60;;;;;;4981747;28;20014;-90
2022/05/02 10:50:50;;;;;;;11.35;9.50;;;18.60;54.40;;;;;;5003493;28;20050;-91
2022/05/02 10:53:31;;;;;;;11.75;9.07;;;18.60;53.90;;;;;;4994044;28;20038;-92
2022/05/02 10:56:18;;;;;;;12.95;9.23;;;18.60;55.80;;;;;;4977631;28;20489;-91
2022/05/02 10:58:44;;;;;;;11.55;8.77;;;18.70;56.00;;;;;;4993561;28;20069;-91
2022/05/02 11:01:45;;;;;;;13.02;9.07;;;18.80;55.90;;;;;;4993936;28;20129;-90
2022/05/02 11:04:42;;;;;;;11.63;8.80;;;18.90;56.70;;;;;;4993020;28;20504;-91
2022/05/02 11:07:17;;;;;;;10.95;8.30;;;19.10;56.70;;;;;;4992402;28;20042;-91
2022/05/02 11:09:55;;;;;;;12.38;8.93;;;19.40;56.50;;;;;;4976315;28;20049;-91
2022/05/02 11:12:27;;;;;;;14.65;10.15;;;19.60;55.10;;;;;;4992506;28;20137;-92
2022/05/02 11:15:05;;;;;;;11.82;9.18;;;19.80;53.60;;;;;;4975973;28;20053;-91
2022/05/02 11:17:56;;;;;;;13.05;9.45;;;19.90;53.60;;;;;;4975867;28;20479;-91
2022/05/02 11:20:41;;;;;;;12.20;8.88;;;20.00;51.80;;;;;;4991861;28;20039;-91
2022/05/02 11:23:38;;;;;;;11.90;8.85;;;20.10;52.80;;;;;;4991765;28;20084;-91
2022/05/02 11:26:43;;;;;;;13.00;8.93;;;20.20;50.90;;;;;;4975914;28;20084;-91
2022/05/02 11:29:22;;;;;;;11.27;8.68;;;20.30;52.60;;;;;;4991911;28;20065;-91
2022/05/02 11:32:02;;;;;;;12.50;8.73;;;20.50;52.40;;;;;;4991428;28;20136;-92
2022/05/02 11:34:47;;;;;;;11.60;8.80;;;20.60;53.00;;;;;;4975843;28;20046;-92
2022/05/02 11:37:35;;;;;;;13.18;9.00;;;20.70;51.00;;;;;;4991262;28;20069;-91
2022/05/02 11:40:09;;;;;;;13.32;9.93;;;20.90;52.40;;;;;;4984117;28;20499;-92
2022/05/02 11:42:41;;;;;;;13.52;9.35;;;21.10;51.70;;;;;;5011221;28;20049;-92
2022/05/02 11:45:11;;;;;;;11.65;8.70;;;21.10;50.60;;;;;;5012794;28;20130;-91
2022/05/02 11:47:58;;;;;;;13.15;9.73;;;21.00;50.80;;;;;;5011223;28;20121;-92
2022/05/02 11:50:26;;;;;;;12.20;8.13;;;20.70;48.60;;;;;;5011154;28;20057;-92
2022/05/02 11:52:53;;;;;;;12.80;8.30;;;20.50;49.80;;;;;;5010889;28;20046;-92
2022/05/02 11:55:27;;;;;;;11.90;8.48;;;20.60;49.90;;;;;;5011433;28;20514;-92
2022/05/02 11:58:08;;;;;;;12.32;9.00;;;20.70;48.30;;;;;;5011066;28;20050;-92
2022/05/02 12:00:36;;;;;;;13.40;9.30;;;20.60;47.60;;;;;;5010954;28;20085;-91
2022/05/02 12:03:15;;;;;;;12.50;8.73;;;20.60;50.00;;;;;;5010932;28;20112;-92
2022/05/02 12:05:52;;;;;;;11.60;8.10;;;20.60;51.10;;;;;;5011079;28;20053;-92
2022/05/02 12:08:30;;;;;;;12.20;8.23;;;20.80;49.90;;;;;;5011239;28;20061;-91
2022/05/02 12:11:13;;;;;;;10.88;8.00;;;21.10;50.10;;;;;;5027166;28;20377;-91
2022/05/02 12:13:42;;;;;;;;;;;21.20;48.80;;;;;;5011677;28;20038;-92
2022/05/02 12:16:13;;;;;;;12.90;7.22;;;21.30;50.30;;;;;;5010949;28;19922;-91
2022/05/02 12:18:44;;;;;;;12.75;7.45;;;21.60;48.90;;;;;;4994600;28;20049;-91
2022/05/02 12:21:24;;;;;;;11.40;8.50;;;21.90;48.50;;;;;;4994204;28;20045;-92
2022/05/02 12:23:52;;;;;;;10.77;7.20;;;22.20;48.40;;;;;;4994575;28;20081;-91
2022/05/02 12:26:22;;;;;;;11.52;7.97;;;22.40;48.00;;;;;;5010786;28;20038;-91
2022/05/02 12:28:55;;;;;;;12.73;7.85;;;22.60;46.30;;;;;;5010601;28;20046;-91
2022/05/02 12:31:30;;;;;;;10.32;7.25;;;22.50;44.60;;;;;;4993969;28;20514;-91
2022/05/02 12:33:56;;;;;;;11.70;6.93;;;22.50;46.00;;;;;;5010460;28;20411;-91
2022/05/02 12:36:42;;;;;;;9.88;6.68;;;22.60;46.30;;;;;;5010707;28;20049;-91
2022/05/02 12:39:13;;;;;;;8.93;6.50;;;22.60;45.30;;;;;;4994417;28;20092;-91
2022/05/02 12:41:47;;;;;;;9.63;5.72;;;22.80;45.00;;;;;;5010132;28;20076;-92
2022/05/02 12:44:14;;;;;;;9.80;5.82;;;23.10;45.00;;;;;;5010484;28;20491;-92
2022/05/02 12:46:47;;;;;;;11.00;6.40;;;23.10;44.70;;;;;;4994083;28;20411;-92
2022/05/02 12:49:32;;;;;;;11.45;6.35;;;23.30;42.40;;;;;;4998246;28;20035;-93
2022/05/02 12:51:58;;;;;;;10.10;6.43;;;23.40;42.90;;;;;;4993328;28;20061;-92
2022/05/02 12:54:26;;;;;;;9.43;6.65;;;23.40;43.20;;;;;;4994670;28;20050;-92
2022/05/02 13:02:51;;;;;;;9.85;6.20;;;23.10;40.30;;;;;;4994410;28;20093;-92
2022/05/02 13:05:20;;;;;;;9.98;6.28;;;23.10;40.20;;;;;;4996649;28;20038;-92
2022/05/02 13:07:51;;;;;;;9.43;5.75;;;23.30;40.60;;;;;;4994656;28;20042;-92
2022/05/02 13:10:25;;;;;;;11.65;6.20;;;23.50;40.70;;;;;;5026984;28;20121;-92
2022/05/02 13:13:10;;;;;;;9.15;6.70;;;23.70;41.80;;;;;;4994542;28;20034;-92
2022/05/02 13:15:36;;;;;;;10.77;6.25;;;24.00;40.90;;;;;;4978286;28;20069;-92
2022/05/02 13:18:09;;;;;;;11.43;6.10;;;24.00;39.50;;;;;;4978065;28;20504;-92
2022/05/02 13:20:35;;;;;;;9.52;5.50;;;24.00;40.20;;;;;;4994085;28;20044;-92
2022/05/02 13:23:08;;;;;;;8.50;5.18;;;24.20;40.70;;;;;;4992706;28;20035;-93
2022/05/02 13:26:05;;;;;;;12.73;5.10;;;24.40;41.30;;;;;;5028447;28;20121;-92
2022/05/02 13:28:58;;;;;;;12.85;5.68;;;24.60;42.40;;;;;;4985983;28;20069;-92
2022/05/02 13:31:36;;;;;;;9.93;5.07;;;24.90;41.60;;;;;;4990433;28;20058;-92
2022/05/02 13:34:05;;;;;;;9.32;5.47;;;25.10;41.00;;;;;;4993940;28;20057;-93
2022/05/02 13:36:41;;;;;;;8.07;4.63;;;25.10;40.70;;;;;;4994060;28;20041;-92
2022/05/02 13:39:29;;;;;;;11.38;5.80;;;25.30;40.90;;;;;;5027020;28;20381;-92
2022/05/02 13:42:11;;;;;;;9.48;4.85;;;25.20;39.70;;;;;;4993539;28;20104;-92
2022/05/02 13:45:12;;;;;;;8.60;4.93;;;24.70;40.10;;;;;;4993998;28;20042;-92
2022/05/02 13:48:13;;;;;;;9.15;4.93;;;24.30;39.40;;;;;;4937749;29;20059;-92
2022/05/02 13:50:42;;;;;;;10.55;5.40;;;24.10;40.90;;;;;;4915129;29;20051;-92
2022/05/02 13:53:10;;;;;;;9.45;4.78;;;24.10;39.50;;;;;;4921780;29;20043;-92
2022/05/02 13:56:07;;;;;;;7.43;4.13;;;24.10;38.90;;;;;;4921728;29;20039;-92